createdAt,value
2019-02-25T00:00:15.182Z,27.20
2019-02-25T00:01:15.172Z,22.80
2019-02-25T00:02:15.165Z,22.40
2019-02-25T00:03:15.155Z,23.70
2019-02-25T00:04:15.180Z,21.80
2019-02-25T00:05:15.141Z,24.50
2019-02-25T00:06:15.117Z,23.30
2019-02-25T00:07:15.112Z,23.20
2019-02-25T00:08:15.119Z,24.30
2019-02-25T00:09:15.106Z,25.50
2019-02-25T00:10:15.167Z,22.90
2019-02-25T00:11:15.074Z,24.90
2019-02-25T00:12:15.064Z,23.50
2019-02-25T00:13:15.061Z,25.40
2019-02-25T00:14:15.076Z,23.10
2019-02-25T00:15:15.025Z,22.50
2019-02-25T00:16:15.021Z,25.00
2019-02-25T00:17:15.013Z,24.00
2019-02-25T00:18:14.994Z,20.20
2019-02-25T00:19:15.006Z,24.60
2019-02-25T00:20:14.999Z,21.80
2019-02-25T00:21:14.964Z,22.60
2019-02-25T00:22:14.958Z,22.50
2019-02-25T00:23:14.947Z,22.90
2019-02-25T00:24:14.945Z,22.60
2019-02-25T00:25:14.947Z,23.30
2019-02-25T00:26:14.979Z,22.70
2019-02-25T00:27:14.904Z,22.70
2019-02-25T00:28:14.890Z,22.10
2019-02-25T00:29:14.924Z,19.90
2019-02-25T00:30:14.887Z,22.40
2019-02-25T00:31:14.887Z,21.00
2019-02-25T00:32:14.897Z,26.60
2019-02-25T00:33:14.846Z,22.20
2019-02-25T00:34:14.856Z,22.80
2019-02-25T00:35:14.828Z,23.00
2019-02-25T00:36:14.822Z,23.30
2019-02-25T00:37:14.802Z,23.90
2019-02-25T00:38:14.808Z,23.30
2019-02-25T00:39:14.778Z,21.60
2019-02-25T00:40:14.759Z,22.70
2019-02-25T00:41:14.777Z,22.90
2019-02-25T00:42:14.766Z,21.70
2019-02-25T00:43:14.764Z,22.80
2019-02-25T00:44:14.726Z,23.40
2019-02-25T00:45:14.721Z,23.10
2019-02-25T00:46:14.700Z,21.00
2019-02-25T00:47:14.696Z,21.20
2019-02-25T00:48:14.730Z,22.90
2019-02-25T00:49:14.709Z,23.60
2019-02-25T00:50:14.660Z,22.40
2019-02-25T00:51:14.647Z,22.80
2019-02-25T00:52:14.652Z,22.20
2019-02-25T00:53:14.630Z,23.70
2019-02-25T00:54:14.655Z,21.10
2019-02-25T00:55:14.616Z,21.30
2019-02-25T00:56:14.603Z,21.70
2019-02-25T00:57:14.592Z,22.60
2019-02-25T00:58:14.573Z,20.90
2019-02-25T00:59:14.566Z,21.00
2019-02-25T01:00:14.582Z,22.70
2019-02-25T01:01:14.543Z,25.60
2019-02-25T01:02:14.545Z,21.90
2019-02-25T01:03:14.536Z,21.10
2019-02-25T01:04:14.513Z,23.60
2019-02-25T01:05:14.528Z,21.70
2019-02-25T01:06:14.505Z,21.60
2019-02-25T01:07:14.486Z,23.90
2019-02-25T01:08:14.476Z,21.90
2019-02-25T01:09:14.473Z,21.80
2019-02-25T01:10:14.479Z,22.30
2019-02-25T01:11:14.452Z,21.90
2019-02-25T01:12:14.429Z,21.80
2019-02-25T01:13:14.422Z,21.60
2019-02-25T01:14:14.415Z,22.80
2019-02-25T01:15:14.443Z,23.60
2019-02-25T01:16:14.390Z,22.00
2019-02-25T01:17:14.382Z,21.60
2019-02-25T01:18:14.365Z,21.10
2019-02-25T01:19:14.359Z,22.50
2019-02-25T01:20:14.350Z,21.80
2019-02-25T01:21:14.356Z,20.40
2019-02-25T01:22:14.323Z,20.20
2019-02-25T01:23:14.318Z,20.30
2019-02-25T01:24:14.303Z,22.80
2019-02-25T01:25:14.295Z,22.50
2019-02-25T01:26:14.315Z,19.90
2019-02-25T01:27:14.285Z,20.80
2019-02-25T01:28:14.269Z,21.80
2019-02-25T01:29:14.265Z,23.90
2019-02-25T01:30:14.240Z,21.00
2019-02-25T01:31:14.257Z,23.60
2019-02-25T01:32:14.222Z,21.40
2019-02-25T01:33:14.229Z,19.40
2019-02-25T01:34:14.201Z,21.80
2019-02-25T01:35:14.191Z,21.50
2019-02-25T01:36:14.177Z,22.30
2019-02-25T01:37:14.189Z,22.50
2019-02-25T01:38:15.643Z,23.40
2019-02-25T01:39:14.148Z,21.50
2019-02-25T01:40:14.139Z,24.90
2019-02-25T01:41:14.152Z,21.90
2019-02-25T01:42:14.118Z,21.50
2019-02-25T01:43:14.120Z,22.60
2019-02-25T01:44:14.097Z,23.40
2019-02-25T01:45:14.081Z,21.20
2019-02-25T01:46:14.078Z,23.40
2019-02-25T01:47:14.066Z,23.50
2019-02-25T01:48:14.086Z,21.10
2019-02-25T01:49:14.049Z,21.50
2019-02-25T01:50:14.041Z,21.50
2019-02-25T01:51:14.024Z,21.70
2019-02-25T01:52:14.012Z,22.70
2019-02-25T01:53:14.004Z,21.50
2019-02-25T01:54:14.015Z,22.10
2019-02-25T01:55:13.976Z,23.70
2019-02-25T01:56:13.979Z,22.70
2019-02-25T01:57:13.957Z,23.30
2019-02-25T01:58:13.954Z,22.20
2019-02-25T01:59:13.942Z,20.70
2019-02-25T02:00:14.079Z,21.80
2019-02-25T02:01:13.920Z,21.00
2019-02-25T02:02:13.911Z,21.60
2019-02-25T02:03:13.892Z,22.60
2019-02-25T02:04:13.927Z,21.90
2019-02-25T02:05:14.197Z,22.10
2019-02-25T02:06:13.879Z,22.20
2019-02-25T02:07:13.857Z,22.90
2019-02-25T02:08:13.848Z,20.60
2019-02-25T02:09:13.834Z,20.70
2019-02-25T02:10:13.844Z,21.70
2019-02-25T02:11:13.820Z,20.60
2019-02-25T02:12:13.810Z,22.60
2019-02-25T02:13:14.549Z,20.80
2019-02-25T02:14:13.777Z,22.30
2019-02-25T02:15:13.794Z,20.40
2019-02-25T02:16:13.757Z,22.10
2019-02-25T02:17:13.747Z,21.20
2019-02-25T02:18:13.740Z,22.40
2019-02-25T02:19:13.771Z,20.90
2019-02-25T02:20:13.733Z,22.20
2019-02-25T02:21:13.713Z,20.90
2019-02-25T02:22:13.697Z,21.50
2019-02-25T02:23:13.684Z,20.30
2019-02-25T02:24:13.678Z,21.00
2019-02-25T02:25:13.697Z,22.10
2019-02-25T02:26:13.663Z,21.50
2019-02-25T02:27:13.681Z,20.70
2019-02-25T02:28:13.629Z,21.50
2019-02-25T02:29:13.642Z,18.90
2019-02-25T02:30:13.638Z,19.90
2019-02-25T02:31:13.609Z,20.70
2019-02-25T02:32:13.615Z,21.10
2019-02-25T02:33:13.585Z,21.80
2019-02-25T02:34:13.568Z,20.00
2019-02-25T02:35:13.581Z,20.30
2019-02-25T02:36:13.548Z,21.30
2019-02-25T02:37:13.569Z,21.30
2019-02-25T02:38:13.534Z,21.40
2019-02-25T02:39:13.531Z,21.20
2019-02-25T02:40:13.503Z,20.90
2019-02-25T02:41:13.532Z,20.80
2019-02-25T02:42:13.491Z,19.00
2019-02-25T02:43:13.486Z,21.90
2019-02-25T02:44:13.471Z,22.40
2019-02-25T02:45:13.464Z,21.60
2019-02-25T02:46:13.442Z,20.90
2019-02-25T02:47:13.454Z,23.10
2019-02-25T02:48:13.421Z,20.80
2019-02-25T02:49:13.428Z,20.20
2019-02-25T02:50:13.411Z,21.60
2019-02-25T02:51:13.418Z,21.20
2019-02-25T02:52:13.390Z,22.00
2019-02-25T02:53:13.390Z,20.90
2019-02-25T02:54:13.362Z,20.70
2019-02-25T02:55:13.359Z,22.90
2019-02-25T02:56:13.375Z,22.80
2019-02-25T02:57:13.339Z,19.50
2019-02-25T02:58:13.325Z,21.30
2019-02-25T02:59:13.307Z,21.80
2019-02-25T03:00:13.301Z,22.40
2019-02-25T03:01:13.311Z,20.90
2019-02-25T03:02:13.284Z,21.00
2019-02-25T03:03:13.278Z,21.50
2019-02-25T03:04:13.264Z,20.10
2019-02-25T03:05:13.251Z,21.30
2019-02-25T03:06:13.264Z,21.20
2019-02-25T03:07:13.220Z,21.00
2019-02-25T03:08:13.212Z,20.20
2019-02-25T03:09:13.203Z,22.40
2019-02-25T03:10:13.247Z,22.30
2019-02-25T03:11:13.190Z,21.30
2019-02-25T03:12:13.239Z,22.70
2019-02-25T03:13:13.166Z,21.90
2019-02-25T03:14:13.160Z,20.40
2019-02-25T03:15:13.158Z,22.10
2019-02-25T03:16:13.150Z,19.70
2019-02-25T03:17:13.151Z,21.30
2019-02-25T03:18:13.117Z,20.20
2019-02-25T03:19:13.097Z,20.40
2019-02-25T03:20:13.135Z,22.90
2019-02-25T03:21:13.078Z,20.70
2019-02-25T03:22:13.102Z,22.20
2019-02-25T03:23:13.092Z,20.70
2019-02-25T03:24:13.057Z,20.40
2019-02-25T03:25:13.045Z,21.30
2019-02-25T03:26:13.027Z,21.70
2019-02-25T03:27:13.016Z,21.00
2019-02-25T03:28:13.031Z,20.90
2019-02-25T03:29:13.034Z,21.60
2019-02-25T03:30:12.995Z,21.50
2019-02-25T03:31:12.976Z,21.40
2019-02-25T03:32:12.980Z,22.10
2019-02-25T03:33:12.953Z,21.20
2019-02-25T03:34:12.951Z,20.30
2019-02-25T03:35:12.955Z,22.00
2019-02-25T03:36:12.931Z,22.90
2019-02-25T03:37:12.915Z,21.90
2019-02-25T03:38:12.901Z,21.10
2019-02-25T03:39:12.924Z,23.00
2019-02-25T03:40:12.883Z,20.60
2019-02-25T03:41:12.875Z,21.80
2019-02-25T03:42:12.884Z,22.60
2019-02-25T03:43:12.871Z,21.60
2019-02-25T03:44:12.845Z,20.60
2019-02-25T03:45:12.850Z,22.90
2019-02-25T03:46:12.823Z,22.40
2019-02-25T03:47:12.815Z,20.00
2019-02-25T03:48:12.808Z,22.10
2019-02-25T03:49:12.793Z,22.00
2019-02-25T03:50:12.806Z,22.40
2019-02-25T03:51:12.763Z,21.30
2019-02-25T03:52:12.755Z,22.70
2019-02-25T03:53:12.748Z,22.20
2019-02-25T03:54:12.755Z,21.50
2019-02-25T03:55:12.756Z,21.00
2019-02-25T03:56:12.744Z,23.70
2019-02-25T03:57:12.738Z,21.60
2019-02-25T03:58:12.693Z,21.30
2019-02-25T03:59:12.684Z,21.30
2019-02-25T04:00:12.694Z,20.10
2019-02-25T04:01:12.694Z,18.40
2019-02-25T04:02:12.653Z,20.60
2019-02-25T04:03:12.639Z,22.40
2019-02-25T04:04:12.629Z,22.80
2019-02-25T04:05:12.629Z,22.20
2019-02-25T04:06:12.639Z,21.30
2019-02-25T04:07:12.614Z,19.90
2019-02-25T04:08:12.608Z,22.10
2019-02-25T04:09:12.585Z,20.70
2019-02-25T04:10:12.571Z,20.80
2019-02-25T04:11:12.578Z,22.90
2019-02-25T04:12:12.545Z,19.70
2019-02-25T04:13:12.543Z,19.80
2019-02-25T04:14:12.565Z,20.20
2019-02-25T04:15:12.522Z,20.30
2019-02-25T04:16:12.505Z,21.10
2019-02-25T04:17:12.497Z,22.00
2019-02-25T04:18:12.491Z,18.70
2019-02-25T04:19:12.482Z,21.10
2019-02-25T04:20:12.496Z,20.80
2019-02-25T04:21:12.460Z,20.50
2019-02-25T04:22:12.445Z,20.10
2019-02-25T04:23:12.438Z,20.80
2019-02-25T04:24:12.422Z,21.90
2019-02-25T04:25:12.421Z,20.60
2019-02-25T04:26:12.426Z,20.30
2019-02-25T04:27:12.419Z,20.70
2019-02-25T04:28:12.388Z,21.80
2019-02-25T04:29:12.394Z,20.50
2019-02-25T04:30:12.360Z,19.50
2019-02-25T04:31:12.353Z,20.90
2019-02-25T04:32:12.363Z,20.50
2019-02-25T04:33:12.337Z,20.20
2019-02-25T04:34:12.327Z,19.40
2019-02-25T04:35:12.316Z,22.80
2019-02-25T04:36:12.300Z,18.80
2019-02-25T04:37:12.305Z,23.60
2019-02-25T04:38:12.282Z,21.90
2019-02-25T04:39:12.279Z,21.70
2019-02-25T04:40:12.268Z,24.00
2019-02-25T04:41:12.256Z,21.10
2019-02-25T04:42:12.260Z,23.10
2019-02-25T04:43:12.228Z,22.60
2019-02-25T04:44:12.216Z,24.20
2019-02-25T04:45:12.206Z,18.90
2019-02-25T04:46:12.200Z,20.10
2019-02-25T04:47:12.214Z,19.10
2019-02-25T04:48:12.199Z,22.10
2019-02-25T04:49:12.182Z,19.60
2019-02-25T04:50:12.193Z,19.90
2019-02-25T04:51:12.189Z,21.10
2019-02-25T04:52:12.180Z,19.80
2019-02-25T04:53:12.163Z,19.70
2019-02-25T04:54:12.107Z,21.20
2019-02-25T04:55:12.112Z,19.70
2019-02-25T04:56:12.088Z,20.10
2019-02-25T04:57:12.097Z,18.70
2019-02-25T04:58:12.090Z,19.30
2019-02-25T04:59:12.074Z,19.90
2019-02-25T05:00:12.061Z,20.60
2019-02-25T05:01:12.050Z,22.70
2019-02-25T05:02:12.066Z,21.00
2019-02-25T05:03:12.018Z,20.20
2019-02-25T05:04:12.019Z,21.70
2019-02-25T05:05:12.008Z,20.50
2019-02-25T05:06:11.992Z,20.90
2019-02-25T05:07:11.978Z,20.80
2019-02-25T05:08:11.994Z,19.90
2019-02-25T05:09:11.957Z,19.50
2019-02-25T05:10:11.957Z,19.30
2019-02-25T05:11:11.950Z,20.70
2019-02-25T05:12:11.935Z,21.30
2019-02-25T05:13:11.974Z,21.40
2019-02-25T05:14:11.903Z,21.50
2019-02-25T05:15:11.892Z,20.40
2019-02-25T05:16:11.885Z,20.90
2019-02-25T05:17:11.890Z,19.90
2019-02-25T05:18:11.866Z,22.10
2019-02-25T05:19:11.911Z,21.70
2019-02-25T05:20:11.861Z,18.90
2019-02-25T05:21:11.833Z,20.60
2019-02-25T05:22:11.847Z,20.10
2019-02-25T05:23:11.848Z,21.40
2019-02-25T05:24:11.807Z,22.60
2019-02-25T05:25:11.815Z,19.80
2019-02-25T05:26:11.782Z,18.50
2019-02-25T05:27:11.771Z,19.40
2019-02-25T05:28:11.766Z,20.10
2019-02-25T05:29:12.402Z,21.10
2019-02-25T05:30:11.776Z,19.80
2019-02-25T05:31:11.736Z,19.80
2019-02-25T05:32:11.723Z,20.30
2019-02-25T05:33:11.715Z,20.30
2019-02-25T05:34:11.708Z,21.50
2019-02-25T05:35:11.710Z,21.20
2019-02-25T05:36:11.758Z,21.80
2019-02-25T05:37:11.687Z,20.90
2019-02-25T05:38:11.659Z,21.20
2019-02-25T05:39:11.656Z,21.60
2019-02-25T05:40:11.638Z,19.40
2019-02-25T05:41:11.622Z,22.00
2019-02-25T05:42:11.984Z,20.60
2019-02-25T05:43:11.610Z,21.30
2019-02-25T05:44:11.609Z,21.40
2019-02-25T05:45:11.602Z,20.00
2019-02-25T05:46:11.593Z,22.30
2019-02-25T05:47:11.586Z,21.00
2019-02-25T05:48:11.549Z,21.00
2019-02-25T05:49:11.538Z,20.60
2019-02-25T05:50:12.454Z,20.80
2019-02-25T05:51:11.572Z,20.90
2019-02-25T05:52:11.523Z,21.10
2019-02-25T05:53:11.499Z,19.30
2019-02-25T05:54:11.494Z,21.20
2019-02-25T05:55:11.482Z,20.40
2019-02-25T05:56:11.473Z,20.50
2019-02-25T05:57:11.499Z,21.30
2019-02-25T05:58:11.451Z,20.80
2019-02-25T05:59:11.464Z,21.10
2019-02-25T06:00:11.439Z,21.70
2019-02-25T06:01:11.958Z,21.90
2019-02-25T06:02:11.410Z,21.80
2019-02-25T06:03:11.439Z,23.40
2019-02-25T06:04:11.394Z,22.20
2019-02-25T06:05:11.381Z,22.90
2019-02-25T06:06:11.370Z,21.40
2019-02-25T06:07:11.363Z,21.90
2019-02-25T06:08:11.368Z,25.30
2019-02-25T06:09:11.339Z,21.10
2019-02-25T06:10:11.382Z,22.30
2019-02-25T06:11:11.309Z,21.40
2019-02-25T06:12:11.301Z,21.70
2019-02-25T06:13:11.323Z,22.10
2019-02-25T06:14:11.302Z,22.80
2019-02-25T06:15:11.314Z,20.30
2019-02-25T06:16:11.274Z,24.30
2019-02-25T06:17:11.262Z,19.70
2019-02-25T06:18:11.237Z,21.70
2019-02-25T06:19:11.230Z,22.70
2019-02-25T06:20:11.219Z,22.10
2019-02-25T06:21:11.227Z,21.40
2019-02-25T06:22:11.202Z,20.20
2019-02-25T06:23:11.203Z,22.40
2019-02-25T06:24:11.175Z,19.60
2019-02-25T06:25:11.182Z,22.30
2019-02-25T06:26:11.191Z,21.60
2019-02-25T06:27:11.160Z,21.10
2019-02-25T06:28:11.141Z,21.60
2019-02-25T06:29:11.961Z,22.10
2019-02-25T06:30:11.116Z,21.70
2019-02-25T06:31:11.139Z,22.30
2019-02-25T06:32:11.092Z,21.30
2019-02-25T06:33:11.086Z,21.50
2019-02-25T06:34:11.080Z,22.70
2019-02-25T06:35:11.109Z,20.30
2019-02-25T06:36:11.059Z,23.00
2019-02-25T06:37:11.081Z,22.60
2019-02-25T06:38:11.038Z,21.00
2019-02-25T06:39:11.022Z,21.40
2019-02-25T06:40:11.023Z,21.80
2019-02-25T06:41:11.010Z,21.90
2019-02-25T06:42:10.991Z,22.00
2019-02-25T06:43:10.996Z,21.50
2019-02-25T06:44:10.999Z,21.90
2019-02-25T06:45:10.975Z,22.00
2019-02-25T06:46:10.957Z,22.90
2019-02-25T06:47:10.947Z,23.80
2019-02-25T06:48:10.951Z,24.10
2019-02-25T06:49:10.928Z,20.30
2019-02-25T06:50:10.928Z,19.70
2019-02-25T06:51:10.899Z,22.10
2019-02-25T06:52:10.887Z,22.60
2019-02-25T06:53:10.901Z,21.80
2019-02-25T06:54:10.872Z,21.50
2019-02-25T06:55:10.863Z,22.00
2019-02-25T06:56:10.873Z,20.80
2019-02-25T06:57:10.837Z,21.10
2019-02-25T06:58:10.830Z,21.80
2019-02-25T06:59:10.827Z,23.50
2019-02-25T07:00:10.810Z,20.50
2019-02-25T07:01:10.805Z,19.50
2019-02-25T07:02:10.806Z,22.00
2019-02-25T07:03:10.768Z,23.00
2019-02-25T07:04:10.784Z,22.80
2019-02-25T07:05:10.751Z,22.00
2019-02-25T07:06:10.748Z,23.30
2019-02-25T07:07:10.756Z,22.10
2019-02-25T07:08:10.731Z,21.40
2019-02-25T07:09:10.738Z,21.70
2019-02-25T07:10:10.763Z,21.00
2019-02-25T07:11:10.690Z,22.20
2019-02-25T07:12:10.707Z,21.50
2019-02-25T07:13:10.668Z,24.30
2019-02-25T07:14:10.656Z,24.00
2019-02-25T07:15:10.640Z,23.50
2019-02-25T07:16:10.665Z,23.30
2019-02-25T07:17:10.618Z,21.50
2019-02-25T07:18:10.651Z,21.70
2019-02-25T07:19:10.606Z,20.80
2019-02-25T07:20:10.606Z,23.00
2019-02-25T07:21:10.583Z,22.70
2019-02-25T07:22:10.570Z,22.90
2019-02-25T07:23:10.559Z,22.00
2019-02-25T07:24:10.599Z,22.40
2019-02-25T07:25:10.534Z,23.20
2019-02-25T07:26:10.541Z,23.00
2019-02-25T07:27:10.521Z,22.20
2019-02-25T07:28:10.518Z,22.50
2019-02-25T07:29:10.493Z,23.50
2019-02-25T07:30:10.512Z,23.20
2019-02-25T07:31:10.476Z,24.70
2019-02-25T07:32:10.472Z,22.70
2019-02-25T07:33:10.454Z,24.40
2019-02-25T07:34:10.485Z,25.60
2019-02-25T07:35:10.428Z,23.40
2019-02-25T07:36:10.423Z,23.90
2019-02-25T07:37:10.415Z,23.30
2019-02-25T07:38:10.409Z,23.60
2019-02-25T07:39:10.433Z,22.40
2019-02-25T07:40:10.399Z,22.90
2019-02-25T07:41:10.374Z,24.70
2019-02-25T07:42:10.360Z,24.30
2019-02-25T07:43:10.343Z,22.40
2019-02-25T07:44:10.339Z,24.40
2019-02-25T07:45:10.384Z,22.90
2019-02-25T07:46:10.311Z,22.40
2019-02-25T07:47:10.304Z,24.80
2019-02-25T07:48:10.287Z,22.60
2019-02-25T07:49:10.278Z,25.60
2019-02-25T07:50:10.327Z,23.50
2019-02-25T07:51:10.277Z,23.10
2019-02-25T07:52:10.257Z,24.20
2019-02-25T07:53:10.244Z,23.60
2019-02-25T07:54:10.226Z,26.00
2019-02-25T07:55:10.242Z,23.30
2019-02-25T07:56:10.205Z,23.60
2019-02-25T07:57:10.202Z,23.80
2019-02-25T07:58:10.190Z,23.90
2019-02-25T07:59:10.176Z,23.10
2019-02-25T08:00:10.165Z,24.70
2019-02-25T08:01:10.169Z,21.90
2019-02-25T08:02:10.149Z,25.90
2019-02-25T08:03:10.134Z,23.30
2019-02-25T08:04:10.133Z,23.70
2019-02-25T08:05:10.111Z,22.50
2019-02-25T08:06:11.964Z,22.90
2019-02-25T08:07:10.099Z,24.10
2019-02-25T08:08:10.072Z,24.70
2019-02-25T08:09:10.062Z,23.30
2019-02-25T08:10:10.070Z,25.50
2019-02-25T08:11:10.080Z,24.60
2019-02-25T08:12:10.050Z,24.00
2019-02-25T08:13:10.043Z,23.70
2019-02-25T08:14:10.011Z,23.20
2019-02-25T08:15:10.003Z,23.30
2019-02-25T08:16:10.014Z,23.10
2019-02-25T08:17:10.008Z,24.60
2019-02-25T08:18:09.978Z,24.10
2019-02-25T08:19:09.960Z,24.10
2019-02-25T08:20:09.992Z,23.80
2019-02-25T08:21:09.955Z,24.90
2019-02-25T08:22:09.930Z,22.80
2019-02-25T08:23:09.952Z,23.70
2019-02-25T08:24:09.920Z,25.40
2019-02-25T08:25:09.922Z,24.00
2019-02-25T08:26:09.905Z,26.60
2019-02-25T08:27:09.872Z,25.00
2019-02-25T08:28:09.881Z,24.40
2019-02-25T08:29:09.856Z,24.90
2019-02-25T08:30:09.853Z,25.80
2019-02-25T08:31:09.830Z,25.90
2019-02-25T08:32:09.814Z,26.50
2019-02-25T08:33:09.799Z,24.60
2019-02-25T08:34:18.106Z,25.90
2019-02-25T08:35:10.789Z,25.20
2019-02-25T08:36:09.777Z,26.00
2019-02-25T08:37:09.771Z,25.70
2019-02-25T08:38:09.773Z,25.10
2019-02-25T08:39:09.752Z,24.90
2019-02-25T08:40:11.609Z,24.70
2019-02-25T08:41:09.731Z,25.50
2019-02-25T08:42:09.713Z,24.20
2019-02-25T08:43:09.716Z,26.00
2019-02-25T08:44:09.698Z,26.70
2019-02-25T08:45:09.677Z,24.70
2019-02-25T08:46:09.668Z,25.30
2019-02-25T08:47:09.669Z,25.40
2019-02-25T08:48:09.680Z,28.00
2019-02-25T08:49:09.697Z,25.70
2019-02-25T08:50:09.625Z,26.40
2019-02-25T08:51:09.623Z,25.30
2019-02-25T08:52:09.609Z,26.00
2019-02-25T08:53:09.587Z,26.90
2019-02-25T08:54:09.582Z,26.80
2019-02-25T08:55:09.591Z,24.90
2019-02-25T08:56:09.563Z,25.30
2019-02-25T08:57:09.548Z,25.40
2019-02-25T08:58:09.552Z,27.10
2019-02-25T08:59:09.555Z,24.00
2019-02-25T09:00:09.536Z,24.50
2019-02-25T09:01:09.501Z,25.70
2019-02-25T09:02:09.504Z,26.90
2019-02-25T09:03:09.486Z,27.80
2019-02-25T09:04:09.475Z,28.10
2019-02-25T09:05:09.485Z,27.50
2019-02-25T09:06:09.532Z,26.00
2019-02-25T09:07:09.476Z,25.50
2019-02-25T09:08:09.443Z,25.20
2019-02-25T09:09:09.425Z,26.50
2019-02-25T09:10:09.442Z,25.30
2019-02-25T09:11:14.069Z,27.70
2019-02-25T09:12:10.379Z,26.30
2019-02-25T09:13:09.381Z,27.60
2019-02-25T09:14:09.370Z,25.50
2019-02-25T09:15:09.417Z,26.90
2019-02-25T09:16:09.367Z,28.40
2019-02-25T09:17:09.338Z,27.10
2019-02-25T09:18:09.327Z,29.40
2019-02-25T09:19:09.306Z,27.80
2019-02-25T09:20:09.312Z,28.10
2019-02-25T09:21:09.337Z,27.90
2019-02-25T09:22:09.275Z,28.50
2019-02-25T09:23:09.263Z,29.40
2019-02-25T09:24:09.267Z,28.40
2019-02-25T09:25:09.257Z,29.20
2019-02-25T09:26:09.239Z,27.10
2019-02-25T09:27:09.269Z,28.40
2019-02-25T09:28:09.232Z,28.30
2019-02-25T09:29:09.207Z,28.60
2019-02-25T09:30:09.218Z,28.40
2019-02-25T09:31:09.213Z,29.60
2019-02-25T09:32:09.169Z,33.20
2019-02-25T09:33:09.177Z,29.60
2019-02-25T09:34:09.174Z,29.30
2019-02-25T09:35:09.156Z,30.20
2019-02-25T09:36:09.158Z,30.60
2019-02-25T09:37:10.013Z,31.80
2019-02-25T09:38:09.149Z,29.40
2019-02-25T09:39:09.119Z,31.00
2019-02-25T09:40:09.126Z,33.40
2019-02-25T09:41:09.085Z,30.70
2019-02-25T09:42:09.074Z,31.80
2019-02-25T09:43:09.075Z,31.30
2019-02-25T09:44:09.048Z,31.30
2019-02-25T09:45:09.042Z,31.60
2019-02-25T09:46:09.035Z,33.00
2019-02-25T09:47:09.021Z,33.90
2019-02-25T09:48:09.076Z,33.00
2019-02-25T09:49:09.000Z,33.30
2019-02-25T09:50:08.982Z,33.50
2019-02-25T09:51:09.010Z,34.00
2019-02-25T09:52:08.989Z,33.80
2019-02-25T09:53:08.956Z,31.20
2019-02-25T09:54:08.959Z,33.10
2019-02-25T09:55:08.932Z,33.00
2019-02-25T09:56:08.924Z,34.50
2019-02-25T09:57:08.950Z,32.30
2019-02-25T09:58:08.954Z,32.50
2019-02-25T09:59:08.917Z,34.00
2019-02-25T10:00:08.879Z,34.50
2019-02-25T10:01:08.869Z,32.50
2019-02-25T10:02:08.869Z,35.10
2019-02-25T10:03:08.840Z,33.00
2019-02-25T10:04:08.926Z,32.90
2019-02-25T10:05:08.824Z,33.20
2019-02-25T10:06:08.829Z,35.30
2019-02-25T10:07:08.811Z,32.70
2019-02-25T10:08:08.797Z,33.20
2019-02-25T10:09:08.807Z,33.50
2019-02-25T10:10:08.827Z,34.10
2019-02-25T10:11:08.768Z,32.90
2019-02-25T10:12:08.757Z,31.80
2019-02-25T10:13:08.751Z,33.10
2019-02-25T10:14:08.732Z,31.10
2019-02-25T10:15:08.756Z,32.20
2019-02-25T10:16:08.707Z,32.60
2019-02-25T10:17:08.700Z,31.40
2019-02-25T10:18:08.708Z,33.10
2019-02-25T10:19:08.691Z,34.00
2019-02-25T10:20:08.681Z,34.80
2019-02-25T10:21:08.691Z,30.30
2019-02-25T10:22:08.688Z,34.60
2019-02-25T10:23:08.641Z,32.40
2019-02-25T10:24:08.636Z,33.10
2019-02-25T10:25:08.635Z,33.10
2019-02-25T10:26:08.646Z,33.20
2019-02-25T10:27:08.593Z,31.10
2019-02-25T10:28:08.588Z,33.90
2019-02-25T10:29:08.592Z,33.40
2019-02-25T10:30:08.565Z,33.80
2019-02-25T10:31:08.561Z,34.70
2019-02-25T10:32:08.572Z,34.70
2019-02-25T10:33:08.531Z,32.50
2019-02-25T10:34:08.519Z,35.70
2019-02-25T10:35:09.379Z,32.90
2019-02-25T10:36:08.950Z,34.10
2019-02-25T10:37:09.046Z,35.80
2019-02-25T10:38:08.503Z,33.90
2019-02-25T10:39:10.480Z,33.90
2019-02-25T10:40:08.468Z,32.90
2019-02-25T10:41:08.442Z,35.50
2019-02-25T10:42:08.446Z,33.00
2019-02-25T10:43:08.448Z,34.80
2019-02-25T10:44:08.552Z,35.30
2019-02-25T10:45:08.998Z,32.50
2019-02-25T10:46:09.531Z,34.10
2019-02-25T10:47:08.416Z,32.80
2019-02-25T10:48:08.415Z,33.80
2019-02-25T10:49:11.546Z,32.40
2019-02-25T10:50:08.373Z,31.90
2019-02-25T10:51:09.289Z,32.20
2019-02-25T10:52:09.215Z,31.90
2019-02-25T10:53:08.333Z,32.00
2019-02-25T10:54:11.058Z,30.70
2019-02-25T10:55:08.310Z,31.50
2019-02-25T10:56:08.310Z,34.30
2019-02-25T10:57:08.297Z,33.90
2019-02-25T10:58:08.283Z,31.70
2019-02-25T10:59:08.348Z,31.00
2019-02-25T11:00:09.606Z,32.10
2019-02-25T11:01:13.383Z,32.20
2019-02-25T11:02:11.040Z,31.80
2019-02-25T11:03:08.233Z,31.90
2019-02-25T11:04:08.256Z,35.70
2019-02-25T11:05:08.204Z,32.30
2019-02-25T11:06:08.203Z,34.30
2019-02-25T11:07:09.657Z,31.20
2019-02-25T11:08:09.527Z,31.40
2019-02-25T11:09:09.031Z,29.90
2019-02-25T11:10:08.151Z,29.70
2019-02-25T11:11:08.165Z,28.10
2019-02-25T11:12:08.136Z,29.60
2019-02-25T11:13:08.132Z,29.50
2019-02-25T11:14:09.216Z,30.90
2019-02-25T11:15:09.509Z,31.00
2019-02-25T11:16:09.728Z,30.10
2019-02-25T11:17:08.082Z,30.40
2019-02-25T11:18:08.078Z,30.00
2019-02-25T11:19:08.071Z,29.60
2019-02-25T11:20:08.283Z,30.00
2019-02-25T11:21:08.862Z,27.50
2019-02-25T11:22:09.948Z,27.80
2019-02-25T11:23:09.967Z,27.30
2019-02-25T11:24:08.006Z,25.60
2019-02-25T11:25:08.007Z,26.10
2019-02-25T11:26:09.329Z,28.30
2019-02-25T11:27:07.975Z,26.00
2019-02-25T11:28:11.250Z,29.30
2019-02-25T11:29:10.147Z,26.70
2019-02-25T11:30:09.412Z,29.90
2019-02-25T11:31:07.952Z,30.80
2019-02-25T11:32:07.953Z,26.80
2019-02-25T11:33:07.919Z,28.60
2019-02-25T11:34:08.128Z,26.70
2019-02-25T11:35:08.666Z,28.40
2019-02-25T11:36:07.878Z,29.80
2019-02-25T11:37:07.881Z,30.60
2019-02-25T11:38:07.867Z,28.20
2019-02-25T11:39:09.459Z,28.40
2019-02-25T11:40:07.839Z,27.80
2019-02-25T11:41:09.499Z,28.30
2019-02-25T11:42:10.071Z,28.50
2019-02-25T11:43:08.384Z,28.10
2019-02-25T11:44:07.823Z,28.90
2019-02-25T11:45:07.802Z,27.30
2019-02-25T11:46:07.791Z,28.20
2019-02-25T11:47:07.789Z,29.70
2019-02-25T11:48:07.775Z,29.60
2019-02-25T11:49:07.750Z,31.20
2019-02-25T11:50:07.740Z,27.80
2019-02-25T11:51:07.729Z,27.40
2019-02-25T11:52:07.714Z,27.70
2019-02-25T11:53:07.727Z,29.30
2019-02-25T11:54:07.693Z,28.50
2019-02-25T11:55:07.740Z,27.10
2019-02-25T11:56:07.675Z,25.70
2019-02-25T11:57:07.662Z,27.00
2019-02-25T11:58:07.687Z,27.40
2019-02-25T11:59:07.654Z,28.60
2019-02-25T12:00:07.633Z,30.70
2019-02-25T12:01:07.622Z,28.20
2019-02-25T12:02:08.536Z,30.30
2019-02-25T12:03:07.619Z,27.70
2019-02-25T12:04:07.626Z,28.70
2019-02-25T12:05:07.583Z,31.20
2019-02-25T12:06:07.576Z,28.00
2019-02-25T12:07:07.573Z,29.70
2019-02-25T12:08:07.575Z,30.50
2019-02-25T12:09:07.540Z,29.20
2019-02-25T12:10:07.531Z,27.00
2019-02-25T12:11:08.712Z,29.40
2019-02-25T12:12:07.520Z,27.80
2019-02-25T12:13:07.535Z,29.30
2019-02-25T12:14:07.499Z,28.10
2019-02-25T12:15:07.476Z,29.30
2019-02-25T12:16:07.516Z,29.70
2019-02-25T12:17:07.467Z,28.00
2019-02-25T12:18:07.467Z,28.20
2019-02-25T12:19:07.445Z,28.60
2019-02-25T12:20:07.495Z,31.10
2019-02-25T12:21:07.415Z,28.70
2019-02-25T12:22:07.412Z,27.30
2019-02-25T12:23:07.422Z,26.60
2019-02-25T12:24:07.394Z,28.00
2019-02-25T12:25:07.397Z,30.30
2019-02-25T12:26:07.403Z,27.70
2019-02-25T12:27:07.368Z,27.80
2019-02-25T12:28:07.347Z,27.50
2019-02-25T12:29:10.783Z,26.90
2019-02-25T12:30:07.335Z,28.60
2019-02-25T12:31:07.330Z,28.30
2019-02-25T12:32:07.329Z,28.30
2019-02-25T12:33:07.311Z,26.40
2019-02-25T12:34:07.292Z,28.30
2019-02-25T12:35:07.295Z,26.20
2019-02-25T12:36:07.275Z,27.10
2019-02-25T12:37:07.295Z,28.30
2019-02-25T12:38:07.276Z,27.00
2019-02-25T12:39:07.258Z,27.20
2019-02-25T12:40:07.225Z,25.70
2019-02-25T12:41:07.214Z,26.30
2019-02-25T12:42:07.225Z,25.20
2019-02-25T12:43:07.237Z,25.90
2019-02-25T12:44:07.212Z,28.60
2019-02-25T12:45:07.220Z,27.60
2019-02-25T12:46:07.164Z,27.80
2019-02-25T12:47:07.152Z,27.70
2019-02-25T12:48:07.150Z,28.00
2019-02-25T12:49:07.156Z,26.40
2019-02-25T12:50:07.147Z,28.40
2019-02-25T12:51:07.119Z,29.60
2019-02-25T12:52:07.112Z,26.10